首页
METAR-TAF:

METAR-TAF

机场 :

喀什机场

喀什, 中华人民共和国

纬度: 39-28N, 经度: 075-59E, 海拔: 1291米

当前天气观测

该预报发布于28分钟前的00:00 UTC
风速6节,风向西转西南,在南转西南西转西北之间变化
温度 11°C
湿度 19%
气压 1003 hPa
能见度10公里或以上
1500米以下无云,无积雨云

METAR: ZWSH 190000Z 24003MPS 200V290 CAVOK 11/M12 Q1003 NOSIG

时间: 08:28 (00:28 UTC)

预报

该预报发布于3小时和24分钟前的21:04 UTC
预报有效从19日的 00点(UTC)到 19日的 24点(UTC)
风速8节,风向北转西北
能見度: 7000
成为
从 19日的 05点(UTC)到 19日的 06点(UTC)
风速8节,风向东转东北

TAF: ZWSH 182104Z 1900/1924 33004MPS 7000 NSC TX18/1909Z TN09/1900Z BECMG 1905/1906 06004MPS

超过4000个机场的气象观测和天气预报(METAR&TAF报告)。

可查询的气象台以黄色和红色小点在地图上表示。

将鼠标移到小点上方,可查看气象台名称。

然后点击查看天气观测和预报。

如需切换地图:点击带黑十字的绿色按钮放大地图;点击带横线的绿色按钮缩小地图;或者点击绿色箭头查看邻近地区的地图。


METAR-TAF: